Nearby METAR Reports

 

KSJC - San Jose, California, USA
Distance from station: NØ 14km
Oppdatert: 25/05/2024 06:53
Overskyet
Overskyet
 Vind fra V
Vind: V 19 km/h
Temperatur: 15°C
Duggpunkt: 9°C
Fuktighet: 68%
Barometer: 1014.2 hPa
Clouds: Overskyet
Visibility: 16 km
Cloud details: Few Clouds 579 m
Overskyet 945 m
2024/05/25 04:53 KSJC 250453Z 27010KT 10SM FEW019 OVC031 15/09 A2995 RMK AO2 SLP141 T01500089
KNUQ - Moffett Nas/Mtn, California, USA
Distance from station: N 14km
Oppdatert: 25/05/2024 06:55
Overskyet
Overskyet
 Vind fra VSV
Vind: VSV 9 km/h
Temperatur: 14°C
Duggpunkt: 9°C
Fuktighet: 72%
Barometer: 1014.2 hPa
Clouds: Overskyet
Visibility: 16 km
Cloud details: Overskyet 732 m
2024/05/25 04:55 KNUQ 250455Z AUTO 25005KT 10SM OVC024 14/09 A2995 RMK AO2
 
KPAO - Palo Alto, California, USA
Distance from station: NNV 23km
Oppdatert: 25/05/2024 05:47
NOT Current
Hovedsaklig skyet
Hovedsaklig skyet
 Vind fra VSV
Vind: VSV 13 km/h
Temperatur: 13°C
Duggpunkt: 9°C
Fuktighet: 77%
Barometer: 1014.2 hPa
Clouds: Hovedsaklig skyet
Visibility: 16 km
Cloud details: Hovedsaklig skyet 762 m
2024/05/25 03:47 KPAO 250347Z 24007KT 10SM BKN025 13/09 A2995 RMK LAST
KRHV - San Jose/Reid, California, USA
Distance from station: ØNØ 19km
Oppdatert: 25/05/2024 06:55
Hovedsaklig skyet
Hovedsaklig skyet
 Vind fra V
Vind: V 9 km/h
Temperatur: 14°C
Duggpunkt: 8°C
Fuktighet: 67%
Barometer: 1014.6 hPa
Clouds: Hovedsaklig skyet
Visibility: 16 km
Cloud details: Hovedsaklig skyet 914 m
2024/05/25 04:55 KRHV 250455Z 28005KT 10SM BKN030 14/08 A2996 RMK LAST WIND VELOCITY AND DIRECTION ESTIMATED DUE TO EQUIPMENT OUTAGE
 
KOAK - Oakland, California, USA
Distance from station: NNV 50km
Oppdatert: 25/05/2024 06:53
Overskyet
Overskyet
 Vind fra V
Vind: V 30 km/h, Vindkast: 50 km/h
Temperatur: 12°C
Duggpunkt: 12°C
Fuktighet: 100%
Barometer: 1013.5 hPa
Clouds: Overskyet
Visibility: 16 km
Cloud details: Overskyet 305 m
2024/05/25 04:53 KOAK 250453Z 26016G27KT 10SM OVC010 12/12 A2993 RMK AO2 PK WND 27031/0407 RAE03B35E45 CIG 007V012 SLP135 P0000 T01220117
KSQL - San Carlos Airpo, California, USA
Distance from station: NV 34km
Oppdatert: 25/05/2024 06:55
Overskyet
Overskyet
 Vind fra V
Vind: V 13 km/h
Temperatur: 13°C
Duggpunkt: 10°C
Fuktighet: 82%
Barometer: 1014.2 hPa
Clouds: Overskyet
Visibility: 11 km
Cloud details: Hovedsaklig skyet 457 m
Overskyet 579 m
2024/05/25 04:55 KSQL 250455Z AUTO 27007KT 7SM BKN015 OVC019 13/10 A2995 RMK AO2
 
KSFO - San Francisco, California, USA
Distance from station: NV 49km
Oppdatert: 25/05/2024 06:56
Overskyet
Overskyet
 Vind fra V
Vind: V 39 km/h, Vindkast: 50 km/h
Temperatur: 13°C
Duggpunkt: 9°C
Fuktighet: 77%
Barometer: 1013.2 hPa
Clouds: Overskyet
Visibility: 16 km
Cloud details: Few Clouds 122 m
Overskyet 335 m
2024/05/25 04:56 KSFO 250456Z 26021G27KT 10SM FEW004 OVC011 13/09 A2992 RMK AO2 PK WND 26030/0444 SLP132 T01330094
KE16 - San Martin, California, USA
Distance from station: ØSØ 43km
Oppdatert: 25/05/2024 06:55
Overskyet
Overskyet
 Vind fra SV
Vind: SV 7 km/h
Temperatur: 13°C
Duggpunkt: 9°C
Fuktighet: 77%
Barometer: 1014.9 hPa
Clouds: Overskyet
Visibility: 16 km
Cloud details: Overskyet 1036 m
2024/05/25 04:55 KE16 250455Z AUTO 23004KT 10SM OVC034 13/09 A2997 RMK AO2
 
KWVI - Watsonville, California, USA
Distance from station: SSØ 44km
Oppdatert: 25/05/2024 06:59
Hovedsaklig skyet
Hovedsaklig skyet
 Vind fra V
Vind: V 11 km/h
Temperatur: 12°C
Duggpunkt: 11°C
Fuktighet: 94%
Barometer: 1015.2 hPa
Clouds: Hovedsaklig skyet
Visibility: 16 km
Cloud details: Few Clouds 183 m
Hovedsaklig skyet 853 m
2024/05/25 04:59 KWVI 250459Z AUTO 28006KT 10SM FEW006 BKN028 12/11 A2998 RMK AO2 T01170106
KHAF - Half Moon Bay, California, USA
Distance from station: VNV 50km
Oppdatert: 25/05/2024 06:55
Overskyet
Overskyet
 Vind fra NV
Vind: NV 19 km/h, Vindkast: 30 km/h
Temperatur: 12°C
Duggpunkt: 12°C
Fuktighet: 100%
Barometer: 1014.6 hPa
Clouds: Overskyet
Visibility: 11 km
Cloud details: Overskyet 305 m
2024/05/25 04:55 KHAF 250455Z AUTO 32010G16KT 7SM OVC010 12/12 A2996 RMK AO2
 
KHWD - Hayward, California, USA
Distance from station: N 44km
Oppdatert: 25/05/2024 06:54
Overskyet
Overskyet
 Vind fra V
Vind: V 20 km/h, Vindkast: 35 km/h
Temperatur: 14°C
Duggpunkt: 9°C
Fuktighet: 72%
Barometer: 1013.9 hPa
Clouds: Overskyet
Visibility: 16 km
Cloud details: Overskyet 457 m
2024/05/25 04:54 KHWD 250454Z AUTO 27011G19KT 10SM OVC015 14/09 A2994 RMK AO2 SLP147 T01390094
KLVK - Livermore, California, USA
Distance from station: NNØ 51km
Oppdatert: 25/05/2024 06:53
Overskyet
Overskyet
 Vind fra VSV
Vind: VSV 20 km/h, Vindkast: 35 km/h
Temperatur: 13°C
Duggpunkt: 8°C
Fuktighet: 72%
Barometer: 1013.2 hPa
Clouds: Overskyet
Visibility: 16 km
Cloud details: Overskyet 579 m
2024/05/25 04:53 KLVK 250453Z 24011G19KT 10SM OVC019 13/08 A2992 RMK AO2 SLP129 T01280083